createdAt,value
2024-05-09T00:00:01.067Z,7.9
2024-05-09T00:01:01.207Z,8.2
2024-05-09T00:02:01.472Z,8.2
2024-05-09T00:03:01.340Z,8.1
2024-05-09T00:04:01.681Z,8
2024-05-09T00:05:02.096Z,7.9
2024-05-09T00:06:02.753Z,7.9
2024-05-09T00:08:01.858Z,7.8
2024-05-09T00:09:01.037Z,7.8
2024-05-09T00:10:01.088Z,7.8
2024-05-09T00:11:01.895Z,7.9
2024-05-09T00:12:02.281Z,8.1
2024-05-09T00:14:01.491Z,8.2
2024-05-09T00:15:01.042Z,8.1
2024-05-09T00:16:01.096Z,7.9
2024-05-09T00:17:01.389Z,7.8
2024-05-09T00:18:04.756Z,7.6
2024-05-09T00:20:01.638Z,7.6
2024-05-09T00:21:02.229Z,7.6
2024-05-09T00:23:01.449Z,7.6
2024-05-09T00:24:01.066Z,7.6
2024-05-09T00:25:01.081Z,7.5
2024-05-09T00:26:01.742Z,7.6
2024-05-09T00:27:00.980Z,7.5
2024-05-09T00:28:01.383Z,7.4
2024-05-09T00:29:01.284Z,7.4
2024-05-09T00:30:01.078Z,7.4
2024-05-09T00:31:01.098Z,7.6
2024-05-09T00:32:02.057Z,7.7
2024-05-09T00:33:03.159Z,7.8
2024-05-09T00:36:01.130Z,7.9
2024-05-09T00:37:01.061Z,7.9
2024-05-09T00:38:03.192Z,7.9
2024-05-09T00:40:01.110Z,7.6
2024-05-09T00:41:01.541Z,7.6
2024-05-09T00:43:01.091Z,7.6
2024-05-09T00:44:01.386Z,7.4
2024-05-09T00:45:01.159Z,7.4
2024-05-09T00:46:01.063Z,7.4
2024-05-09T00:47:01.288Z,7.7
2024-05-09T00:48:04.014Z,7.6
2024-05-09T00:49:01.154Z,7.5
2024-05-09T00:50:01.415Z,7.5
2024-05-09T00:51:01.807Z,7.4
2024-05-09T00:53:01.507Z,7.2
2024-05-09T00:54:01.022Z,7.1
2024-05-09T00:55:01.064Z,7.1
2024-05-09T00:56:01.349Z,6.9
2024-05-09T00:57:01.006Z,6.9
2024-05-09T00:58:01.140Z,6.8
2024-05-09T00:59:01.398Z,6.8
2024-05-09T01:00:01.033Z,6.9
2024-05-09T01:01:01.621Z,6.8
2024-05-09T01:02:01.572Z,6.8
2024-05-09T01:03:03.183Z,7
2024-05-09T01:05:02.205Z,7.1
2024-05-09T01:07:01.182Z,7.4
2024-05-09T01:08:01.850Z,7.5
2024-05-09T01:10:01.087Z,7.6
2024-05-09T01:11:02.085Z,7.6
2024-05-09T01:12:02.354Z,7.4
2024-05-09T01:14:01.518Z,7
2024-05-09T01:15:01.103Z,6.9
2024-05-09T01:17:01.319Z,7.2
2024-05-09T01:18:03.324Z,7.1
2024-05-09T01:20:01.576Z,7.1
2024-05-09T01:21:01.426Z,6.9
2024-05-09T01:22:01.077Z,6.9
2024-05-09T01:23:01.336Z,6.9
2024-05-09T01:24:01.056Z,6.9
2024-05-09T01:25:01.061Z,7
2024-05-09T01:26:01.707Z,6.9
2024-05-09T01:27:01.024Z,7
2024-05-09T01:28:01.278Z,7
2024-05-09T01:29:01.792Z,7
2024-05-09T01:31:01.123Z,7.1
2024-05-09T01:32:02.129Z,7.3
2024-05-09T01:33:02.950Z,7.3
2024-05-09T01:34:01.636Z,7.2
2024-05-09T01:35:01.736Z,7.2
2024-05-09T01:37:01.066Z,7.1
2024-05-09T01:38:01.771Z,6.9
2024-05-09T01:40:01.146Z,6.9
2024-05-09T01:41:01.543Z,6.8
2024-05-09T01:42:01.056Z,6.8
2024-05-09T01:43:01.059Z,6.8
2024-05-09T01:44:01.539Z,6.8
2024-05-09T01:45:01.190Z,6.9
2024-05-09T01:47:01.436Z,6.8
2024-05-09T01:48:05.186Z,6.6
2024-05-09T01:50:02.192Z,6.5
2024-05-09T01:52:01.111Z,6.6
2024-05-09T01:53:01.519Z,6.6
2024-05-09T01:55:07.544Z,6.4
2024-05-09T01:57:01.058Z,6.8
2024-05-09T01:58:01.152Z,6.9
2024-05-09T01:59:01.445Z,6.9
2024-05-09T02:00:01.108Z,6.9
2024-05-09T02:01:01.316Z,6.8
2024-05-09T02:02:02.909Z,6.8
2024-05-09T02:03:03.254Z,6.9
2024-05-09T02:04:01.580Z,7.1
2024-05-09T02:05:02.117Z,7
2024-05-09T02:06:01.090Z,6.9
2024-05-09T02:07:01.144Z,6.8
2024-05-09T02:08:01.333Z,6.9
2024-05-09T02:09:01.073Z,6.9
2024-05-09T02:10:01.082Z,6.9
2024-05-09T02:11:02.366Z,6.9
2024-05-09T02:12:02.718Z,6.8
2024-05-09T02:14:01.717Z,6.5
2024-05-09T02:16:01.097Z,6.4
2024-05-09T02:17:01.386Z,6.6
2024-05-09T02:18:02.760Z,6.8
2024-05-09T02:20:01.618Z,6.8
2024-05-09T02:21:02.398Z,6.8
2024-05-09T02:23:01.445Z,6.6
2024-05-09T02:24:01.024Z,6.5
2024-05-09T02:25:01.103Z,6.5
2024-05-09T02:26:01.685Z,6.5
2024-05-09T02:28:01.438Z,6.5
2024-05-09T02:29:01.387Z,6.6
2024-05-09T02:31:01.098Z,6.4
2024-05-09T02:32:01.977Z,6.3
2024-05-09T02:33:02.528Z,6.2
2024-05-09T02:34:02.636Z,6.2
2024-05-09T02:36:01.107Z,6.5
2024-05-09T02:37:01.120Z,6.4
2024-05-09T02:38:02.468Z,6.2
2024-05-09T02:40:01.103Z,6.1
2024-05-09T02:41:01.404Z,6.1
2024-05-09T02:42:01.032Z,6
2024-05-09T02:43:01.185Z,6.2
2024-05-09T02:44:01.539Z,6.2
2024-05-09T02:45:01.032Z,6.2
2024-05-09T02:46:01.071Z,6.1
2024-05-09T02:47:01.413Z,6
2024-05-09T02:48:04.645Z,5.9
2024-05-09T02:50:01.520Z,5.8
2024-05-09T02:51:01.344Z,5.8
2024-05-09T02:53:01.755Z,5.8
2024-05-09T02:55:01.063Z,6.1
2024-05-09T02:56:01.547Z,6.1
2024-05-09T02:57:00.970Z,6.2
2024-05-09T02:58:01.086Z,6.2
2024-05-09T02:59:01.347Z,6.1
2024-05-09T03:00:01.236Z,6.2
2024-05-09T03:01:01.536Z,6.1
2024-05-09T03:02:01.721Z,6.1
2024-05-09T03:03:02.737Z,6
2024-05-09T03:05:01.440Z,6.1
2024-05-09T03:07:01.017Z,6.1
2024-05-09T03:08:01.777Z,6
2024-05-09T03:09:01.073Z,6
2024-05-09T03:10:01.078Z,5.9
2024-05-09T03:11:01.546Z,6
2024-05-09T03:12:01.957Z,5.8
2024-05-09T03:13:01.008Z,5.9
2024-05-09T03:14:01.354Z,5.9
2024-05-09T03:15:01.083Z,6
2024-05-09T03:16:01.014Z,5.8
2024-05-09T03:17:01.276Z,6
2024-05-09T03:18:04.152Z,5.9
2024-05-09T03:20:01.307Z,5.9
2024-05-09T03:21:01.622Z,5.8
2024-05-09T03:23:01.418Z,5.9
2024-05-09T03:24:01.006Z,6
2024-05-09T03:25:01.136Z,5.8
2024-05-09T03:26:01.725Z,5.7
2024-05-09T03:28:01.292Z,6
2024-05-09T03:29:01.312Z,6.1
2024-05-09T03:30:01.344Z,6.1
2024-05-09T03:31:00.954Z,6.1
2024-05-09T03:32:01.927Z,5.9
2024-05-09T03:33:02.473Z,6.1
2024-05-09T03:34:01.789Z,5.9
2024-05-09T03:35:01.324Z,6
2024-05-09T03:36:01.119Z,5.9
2024-05-09T03:37:01.179Z,5.9
2024-05-09T03:38:01.387Z,5.8
2024-05-09T03:40:01.074Z,5.7
2024-05-09T03:41:01.396Z,5.6
2024-05-09T03:43:01.141Z,5.6
2024-05-09T03:44:01.457Z,5.8
2024-05-09T03:45:01.098Z,5.5
2024-05-09T03:46:01.168Z,5.6
2024-05-09T03:47:01.323Z,5.6
2024-05-09T03:48:02.475Z,5.8
2024-05-09T03:49:01.263Z,5.8
2024-05-09T03:50:01.609Z,5.7
2024-05-09T03:51:01.680Z,5.7
2024-05-09T03:52:01.087Z,5.9
2024-05-09T03:53:02.607Z,5.9
2024-05-09T03:55:01.087Z,5.9
2024-05-09T03:56:01.773Z,6.1
2024-05-09T03:58:01.281Z,5.8
2024-05-09T03:59:01.490Z,5.7
2024-05-09T04:00:01.040Z,5.7
2024-05-09T04:01:01.540Z,5.6
2024-05-09T04:02:01.811Z,5.6
2024-05-09T04:03:03.673Z,5.6
2024-05-09T04:05:01.474Z,5.7
2024-05-09T04:06:01.042Z,5.7
2024-05-09T04:07:01.104Z,5.7
2024-05-09T04:08:02.302Z,5.6
2024-05-09T04:09:01.035Z,5.6
2024-05-09T04:10:01.182Z,5.6
2024-05-09T04:11:02.002Z,5.6
2024-05-09T04:12:02.235Z,5.6
2024-05-09T04:13:01.162Z,5.7
2024-05-09T04:14:01.425Z,5.8
2024-05-09T04:16:01.124Z,5.8
2024-05-09T04:17:01.365Z,5.9
2024-05-09T04:18:04.493Z,5.8
2024-05-09T04:20:01.877Z,5.9
2024-05-09T04:22:01.180Z,6.1
2024-05-09T04:23:01.361Z,5.9
2024-05-09T04:24:01.267Z,5.9
2024-05-09T04:25:01.107Z,5.8
2024-05-09T04:26:01.610Z,5.8
2024-05-09T04:27:01.152Z,5.8
2024-05-09T04:28:01.322Z,5.8
2024-05-09T04:29:01.226Z,5.9
2024-05-09T04:30:01.256Z,5.9
2024-05-09T04:31:01.014Z,6
2024-05-09T04:32:01.925Z,6.1
2024-05-09T04:33:02.099Z,6.1
2024-05-09T04:34:01.699Z,6.1
2024-05-09T04:35:01.356Z,6.2
2024-05-09T04:36:01.090Z,6.2
2024-05-09T04:37:01.092Z,6.3
2024-05-09T04:38:01.784Z,6.3
2024-05-09T04:39:01.011Z,6.4
2024-05-09T04:40:01.101Z,6.4
2024-05-09T04:41:01.332Z,6.4
2024-05-09T04:42:00.975Z,6.4
2024-05-09T04:43:01.191Z,6.6
2024-05-09T04:44:01.429Z,6.7
2024-05-09T04:46:01.046Z,6.7
2024-05-09T04:47:01.248Z,6.8
2024-05-09T04:48:04.742Z,6.9
2024-05-09T04:50:01.398Z,7.1
2024-05-09T04:51:01.430Z,7.2
2024-05-09T04:52:01.092Z,7.3
2024-05-09T04:53:01.275Z,7.5
2024-05-09T04:54:01.114Z,7.6
2024-05-09T04:55:01.133Z,7.7
2024-05-09T04:56:01.556Z,7.8
2024-05-09T04:57:01.143Z,7.8
2024-05-09T04:58:01.258Z,7.9
2024-05-09T04:59:01.305Z,7.9
2024-05-09T05:00:01.179Z,8
2024-05-09T05:01:01.288Z,8.2
2024-05-09T05:02:01.967Z,8.2
2024-05-09T05:03:01.913Z,8.4
2024-05-09T05:04:02.197Z,8.5
2024-05-09T05:06:01.885Z,8.7
2024-05-09T05:07:03.825Z,8.8
2024-05-09T05:09:01.093Z,8.9
2024-05-09T05:10:01.076Z,9
2024-05-09T05:11:01.854Z,9.1
2024-05-09T05:12:01.616Z,9.1
2024-05-09T05:14:01.485Z,9.2
2024-05-09T05:16:01.085Z,9.4
2024-05-09T05:17:01.334Z,9.7
2024-05-09T05:18:02.452Z,9.8
2024-05-09T05:19:01.669Z,9.8
2024-05-09T05:20:02.594Z,9.9
2024-05-09T05:22:01.174Z,10.2
2024-05-09T05:23:02.183Z,10.2
2024-05-09T05:25:01.082Z,10.3
2024-05-09T05:26:01.388Z,10.4
2024-05-09T05:28:01.077Z,10.7
2024-05-09T05:29:01.452Z,10.8
2024-05-09T05:31:01.073Z,10.8
2024-05-09T05:32:01.888Z,10.8
2024-05-09T05:33:03.078Z,10.7
2024-05-09T05:35:01.528Z,10.9
2024-05-09T05:36:01.067Z,11
2024-05-09T05:37:01.052Z,11.2
2024-05-09T05:38:01.845Z,11.3
2024-05-09T05:39:01.063Z,11.4
2024-05-09T05:40:01.089Z,11.5
2024-05-09T05:41:01.514Z,11.6
2024-05-09T05:42:01.018Z,11.7
2024-05-09T05:43:01.063Z,11.8
2024-05-09T05:44:01.332Z,11.9
2024-05-09T05:45:01.137Z,11.9
2024-05-09T05:46:01.061Z,12
2024-05-09T05:47:01.558Z,12.2
2024-05-09T05:48:02.740Z,12.2
2024-05-09T05:50:01.849Z,12.3
2024-05-09T05:51:05.762Z,12.4
2024-05-09T05:53:01.560Z,12.5
2024-05-09T05:54:00.994Z,12.5
2024-05-09T05:55:01.050Z,12.6
2024-05-09T05:56:01.719Z,12.7
2024-05-09T05:57:01.093Z,12.8
2024-05-09T05:58:01.045Z,12.7
2024-05-09T05:59:01.280Z,12.8
2024-05-09T06:00:01.005Z,12.9
2024-05-09T06:01:01.585Z,13
2024-05-09T06:02:01.264Z,13.1
2024-05-09T06:03:01.890Z,13.4
2024-05-09T06:04:01.944Z,13.6
2024-05-09T06:05:02.034Z,13.5
2024-05-09T06:06:01.399Z,13.4
2024-05-09T06:07:01.112Z,13.3
2024-05-09T06:08:02.074Z,13.2
2024-05-09T06:10:01.097Z,13.2
2024-05-09T06:11:01.899Z,13.2
2024-05-09T06:12:02.679Z,13.1
2024-05-09T06:14:01.350Z,13.1
2024-05-09T06:15:01.056Z,13
2024-05-09T06:16:01.178Z,13
2024-05-09T06:17:01.284Z,13.1
2024-05-09T06:18:03.286Z,13.1
2024-05-09T06:19:01.111Z,13
2024-05-09T06:20:01.431Z,13.1
2024-05-09T06:21:01.577Z,13.1
2024-05-09T06:23:01.325Z,13.2
2024-05-09T06:24:07.179Z,13.1
2024-05-09T06:25:01.063Z,13.2
2024-05-09T06:26:01.664Z,13.2
2024-05-09T06:28:01.542Z,13.1
2024-05-09T06:29:01.255Z,13.2
2024-05-09T06:31:01.112Z,13.5
2024-05-09T06:32:02.134Z,13.6
2024-05-09T06:33:02.030Z,13.6
2024-05-09T06:34:02.404Z,13.6
2024-05-09T06:36:01.122Z,13.6
2024-05-09T06:37:01.070Z,13.4
2024-05-09T06:38:02.911Z,13.4
2024-05-09T06:40:01.046Z,13.4
2024-05-09T06:41:01.484Z,13.5
2024-05-09T06:42:01.051Z,13.6
2024-05-09T06:43:01.140Z,13.7
2024-05-09T06:44:01.470Z,13.6
2024-05-09T06:45:01.241Z,13.6
2024-05-09T06:46:01.076Z,13.6
2024-05-09T06:47:01.857Z,13.7
2024-05-09T06:48:02.626Z,13.8
2024-05-09T06:50:01.646Z,14
2024-05-09T06:51:01.295Z,14
2024-05-09T06:52:01.047Z,13.9
2024-05-09T06:53:01.579Z,14.1
2024-05-09T06:54:00.977Z,14.2
2024-05-09T06:55:01.052Z,14.1
2024-05-09T06:56:01.326Z,14.2
2024-05-09T06:57:01.017Z,14.1
2024-05-09T06:58:01.280Z,14.1
2024-05-09T06:59:01.641Z,14.2
2024-05-09T07:00:01.623Z,14.4
2024-05-09T07:01:01.195Z,14.3
2024-05-09T07:02:01.394Z,14.2
2024-05-09T07:03:07.500Z,14.4
2024-05-09T07:05:02.886Z,14.4
2024-05-09T07:07:01.092Z,14.6
2024-05-09T07:08:01.435Z,14.8
2024-05-09T07:09:01.081Z,14.9
2024-05-09T07:11:01.858Z,15.1
2024-05-09T07:12:01.745Z,15
2024-05-09T07:13:01.067Z,14.9
2024-05-09T07:14:01.257Z,15.1
2024-05-09T07:16:01.133Z,15.2
2024-05-09T07:17:01.923Z,15.3
2024-05-09T07:18:02.278Z,15.2
2024-05-09T07:20:01.857Z,15.4
2024-05-09T07:21:01.485Z,15.3
2024-05-09T07:23:01.698Z,15.5
2024-05-09T07:24:01.102Z,15.6
2024-05-09T07:25:01.149Z,15.9
2024-05-09T07:26:01.433Z,16
2024-05-09T07:27:01.016Z,16.1
2024-05-09T07:28:01.088Z,16.1
2024-05-09T07:29:01.487Z,16
2024-05-09T07:30:01.084Z,16
2024-05-09T07:31:01.140Z,15.9
2024-05-09T07:32:01.476Z,15.9
2024-05-09T07:33:04.677Z,15.8
2024-05-09T07:35:01.561Z,15.9
2024-05-09T07:36:01.062Z,16.2
2024-05-09T07:37:01.065Z,16.2
2024-05-09T07:38:01.544Z,16.6
2024-05-09T07:39:01.009Z,16.7
2024-05-09T07:40:01.138Z,16.4
2024-05-09T07:41:01.426Z,16.3
2024-05-09T07:42:01.260Z,16.4
2024-05-09T07:43:01.031Z,16.5
2024-05-09T07:44:01.507Z,16.7
2024-05-09T07:45:58.420Z,16.9
2024-05-09T07:54:00.468Z,17.2
2024-05-09T07:55:02.802Z,17.2
2024-05-09T07:57:02.402Z,17.2
2024-05-09T07:59:01.114Z,17.2
2024-05-09T08:00:01.092Z,17.2
2024-05-09T08:01:02.017Z,17.4
2024-05-09T08:02:02.715Z,17.5
2024-05-09T08:04:01.983Z,17.8
2024-05-09T08:05:02.070Z,17.9
2024-05-09T08:07:01.298Z,17.7
2024-05-09T08:09:22.043Z,17.8
2024-05-09T08:11:01.183Z,17.7
2024-05-09T08:12:01.124Z,17.9
2024-05-09T08:13:01.497Z,17.8
2024-05-09T08:15:01.137Z,18.1
2024-05-09T08:16:02.016Z,17.6
2024-05-09T08:18:02.634Z,17.7
2024-05-09T08:20:08.608Z,17.7
2024-05-09T08:22:01.468Z,18
2024-05-09T08:23:01.050Z,17.9
2024-05-09T08:24:01.116Z,17.9
2024-05-09T08:25:01.429Z,18.1
2024-05-09T08:27:01.170Z,18.2
2024-05-09T08:28:01.998Z,17.9
2024-05-09T08:29:01.079Z,17.8
2024-05-09T08:30:01.726Z,17.6
2024-05-09T08:31:08.389Z,17.9
2024-05-09T08:33:01.748Z,18.2
2024-05-09T08:34:02.401Z,18.1
2024-05-09T08:36:01.146Z,18.3
2024-05-09T08:37:37.890Z,18.4
2024-05-09T08:39:01.025Z,18.2
2024-05-09T08:40:01.698Z,18.4
2024-05-09T08:42:01.065Z,19.2
2024-05-09T08:43:01.419Z,19.5
2024-05-09T08:44:01.110Z,19.4
2024-05-09T08:45:01.144Z,19.4
2024-05-09T08:46:01.600Z,19.3
2024-05-09T08:48:02.189Z,18.8
2024-05-09T08:49:02.243Z,18.5
2024-05-09T08:52:01.496Z,18.8
2024-05-09T08:53:01.133Z,18.8
2024-05-09T08:54:00.993Z,18.6
2024-05-09T08:55:01.584Z,18.7
2024-05-09T08:57:01.054Z,19.4
2024-05-09T08:58:01.526Z,19.8
2024-05-09T09:00:01.274Z,19
2024-05-09T09:01:01.993Z,19.1
2024-05-09T09:02:01.523Z,19.5
2024-05-09T09:03:01.567Z,19.7
2024-05-09T09:04:02.246Z,19.6
2024-05-09T09:06:01.179Z,19.4
2024-05-09T09:07:04.622Z,19.6
2024-05-09T09:09:01.050Z,19.8
2024-05-09T09:10:01.533Z,20.2
2024-05-09T09:11:01.048Z,20.4
2024-05-09T09:12:01.595Z,20.5
2024-05-09T09:13:01.490Z,20.4
2024-05-09T09:14:01.073Z,20.5
2024-05-09T09:15:01.109Z,20.8
2024-05-09T09:16:01.985Z,20.4
2024-05-09T09:18:02.863Z,19.9
2024-05-09T09:20:02.136Z,20.4
2024-05-09T09:22:01.494Z,19.9
2024-05-09T09:24:01.118Z,19.8
2024-05-09T09:25:01.446Z,19.8
2024-05-09T09:26:01.637Z,20.1
2024-05-09T09:28:01.624Z,20.1
2024-05-09T09:29:00.976Z,20.2
2024-05-09T09:30:01.308Z,20.9
2024-05-09T09:31:01.335Z,20.8
2024-05-09T09:33:01.956Z,20.6
2024-05-09T09:34:02.153Z,20.7
2024-05-09T09:36:01.131Z,20.6
2024-05-09T09:37:01.380Z,20.8
2024-05-09T09:39:01.097Z,21.2
2024-05-09T09:40:01.295Z,21.5
2024-05-09T09:41:02.243Z,21.6
2024-05-09T09:43:01.611Z,21.4
2024-05-09T09:44:01.004Z,21.6
2024-05-09T09:45:06.711Z,21.4
2024-05-09T09:47:01.266Z,21.4
2024-05-09T09:48:01.599Z,21.2
2024-05-09T09:49:01.858Z,21.1
2024-05-09T09:51:01.027Z,21.2
2024-05-09T09:52:01.415Z,21.2
2024-05-09T09:54:01.086Z,21.2
2024-05-09T09:55:01.449Z,21.1
2024-05-09T09:57:01.671Z,21
2024-05-09T09:58:01.467Z,20.7
2024-05-09T10:00:01.147Z,20.6
2024-05-09T10:01:02.202Z,20.8
2024-05-09T10:02:02.319Z,21.2
2024-05-09T10:03:02.889Z,21.5
2024-05-09T10:05:02.287Z,21.6
2024-05-09T10:07:01.401Z,21.2
2024-05-09T10:08:01.048Z,21.4
2024-05-09T10:09:01.089Z,21.6
2024-05-09T10:10:01.406Z,21.8
2024-05-09T10:11:01.506Z,21.7
2024-05-09T10:12:01.928Z,21.9
2024-05-09T10:13:01.962Z,21.9
2024-05-09T10:15:01.099Z,21.7
2024-05-09T10:16:01.694Z,21.3
2024-05-09T10:17:01.234Z,20.6
2024-05-09T10:18:01.645Z,20.6
2024-05-09T10:19:01.968Z,21.4
2024-05-09T10:21:01.086Z,21.6
2024-05-09T10:22:01.516Z,21.4
2024-05-09T10:23:01.028Z,21.8
2024-05-09T10:24:01.171Z,22.5
2024-05-09T10:25:06.306Z,22.4
2024-05-09T10:27:01.037Z,22.5
2024-05-09T10:28:01.381Z,22
2024-05-09T10:29:00.972Z,21.8
2024-05-09T10:30:01.138Z,21.7
2024-05-09T10:31:01.508Z,21.9
2024-05-09T10:33:01.817Z,22.1
2024-05-09T10:34:02.959Z,21.9
2024-05-09T10:35:01.536Z,21.6
2024-05-09T10:36:01.091Z,21.4
2024-05-09T10:37:06.140Z,21.1
2024-05-09T10:39:01.437Z,21.8
2024-05-09T10:40:01.466Z,22.1
2024-05-09T10:42:01.118Z,21.8
2024-05-09T10:43:07.313Z,21.6
2024-05-09T10:45:01.056Z,22.1
2024-05-09T10:46:01.737Z,21.6
2024-05-09T10:48:02.378Z,22.4
2024-05-09T10:49:09.270Z,22.3
2024-05-09T10:51:01.108Z,22.1
2024-05-09T10:52:01.365Z,22.5
2024-05-09T10:54:01.064Z,22.4
2024-05-09T10:55:06.866Z,22.6
2024-05-09T10:57:01.098Z,22.2
2024-05-09T10:58:01.504Z,22.2
2024-05-09T10:59:01.017Z,22.1
2024-05-09T11:00:01.287Z,22.5
2024-05-09T11:01:08.654Z,22.9
2024-05-09T11:03:01.670Z,23.4
2024-05-09T11:04:02.608Z,23.2
2024-05-09T11:05:01.669Z,23
2024-05-09T11:07:06.396Z,22.5
2024-05-09T11:09:01.034Z,21.6
2024-05-09T11:10:01.538Z,21.5
2024-05-09T11:11:01.311Z,21.9
2024-05-09T11:12:01.592Z,22.4
2024-05-09T11:13:01.374Z,22.2
2024-05-09T11:14:00.958Z,22.1
2024-05-09T11:15:01.124Z,22.1
2024-05-09T11:16:01.779Z,22.3
2024-05-09T11:17:00.980Z,22.2
2024-05-09T11:18:01.937Z,22.3
2024-05-09T11:19:02.541Z,21.6
2024-05-09T11:21:01.216Z,21.8
2024-05-09T11:22:01.354Z,21.8
2024-05-09T11:23:01.049Z,21.8
2024-05-09T11:24:01.112Z,22.5
2024-05-09T11:25:01.417Z,22.5
2024-05-09T11:27:01.067Z,22.1
2024-05-09T11:28:01.714Z,21.9
2024-05-09T11:29:00.994Z,22.1
2024-05-09T11:30:01.064Z,21.9
2024-05-09T11:31:01.422Z,22.4
2024-05-09T11:32:01.339Z,22.6
2024-05-09T11:33:02.141Z,22.9
2024-05-09T11:35:01.100Z,23.1
2024-05-09T11:36:01.050Z,23.5
2024-05-09T11:37:01.431Z,23.4
2024-05-09T11:38:00.978Z,23.5
2024-05-09T11:39:01.084Z,23.6
2024-05-09T11:40:01.574Z,23.6
2024-05-09T11:42:01.120Z,22.9
2024-05-09T11:43:01.724Z,22.6
2024-05-09T11:45:01.120Z,22.9
2024-05-09T11:46:01.976Z,22.9
2024-05-09T11:47:00.988Z,22.5
2024-05-09T11:48:02.249Z,22.2
2024-05-09T11:49:02.634Z,22.8
2024-05-09T11:50:01.455Z,22.9
2024-05-09T11:52:01.817Z,23
2024-05-09T11:53:01.080Z,23.1
2024-05-09T11:54:01.099Z,23.1
2024-05-09T11:55:01.616Z,23.1
2024-05-09T11:57:01.060Z,22.8
2024-05-09T11:58:01.460Z,23.1
2024-05-09T11:59:01.045Z,22.9
2024-05-09T12:00:01.208Z,23.2
2024-05-09T12:01:01.721Z,23.2
2024-05-09T12:02:02.111Z,22.9
2024-05-09T12:04:03.682Z,22.7
2024-05-09T12:05:01.212Z,22
2024-05-09T12:06:02.287Z,22.3
2024-05-09T12:08:01.119Z,22.9
2024-05-09T12:09:01.024Z,23.2
2024-05-09T12:10:01.607Z,23.4
2024-05-09T12:11:02.503Z,23.7
2024-05-09T12:12:00.970Z,23.6
2024-05-09T12:13:01.509Z,23.8
2024-05-09T12:14:01.040Z,23.7
2024-05-09T12:15:01.131Z,23.1
2024-05-09T12:16:01.973Z,22.7
2024-05-09T12:17:01.307Z,22.4
2024-05-09T12:18:06.469Z,22.5
2024-05-09T12:20:01.134Z,23.7
2024-05-09T12:21:01.143Z,24.4
2024-05-09T12:22:01.409Z,24.6
2024-05-09T12:23:00.990Z,24
2024-05-09T12:24:01.176Z,23.8
2024-05-09T12:25:01.394Z,24.3
2024-05-09T12:26:01.358Z,24.1
2024-05-09T12:27:01.127Z,24
2024-05-09T12:28:02.776Z,23.9
2024-05-09T12:30:01.067Z,23.6
2024-05-09T12:31:01.514Z,23.1
2024-05-09T12:32:01.722Z,23.3
2024-05-09T12:33:01.934Z,22.8
2024-05-09T12:34:01.555Z,22.9
2024-05-09T12:35:01.044Z,22.9
2024-05-09T12:36:01.673Z,23.3
2024-05-09T12:37:01.282Z,23.7
2024-05-09T12:38:01.288Z,23.8
2024-05-09T12:40:01.442Z,23.9
2024-05-09T12:41:01.523Z,24.6
2024-05-09T12:42:01.102Z,24.4
2024-05-09T12:43:01.679Z,24.1
2024-05-09T12:44:01.093Z,23.4
2024-05-09T12:45:01.107Z,23.8
2024-05-09T12:46:02.156Z,24.2
2024-05-09T12:47:01.030Z,23.4
2024-05-09T12:48:02.380Z,23.8
2024-05-09T12:49:03.194Z,24
2024-05-09T12:50:01.192Z,23.5
2024-05-09T12:51:01.099Z,23.2
2024-05-09T12:52:01.397Z,22.4
2024-05-09T12:53:04.096Z,23.1
2024-05-09T12:55:01.841Z,23.2
2024-05-09T12:56:09.993Z,23.3
2024-05-09T12:58:01.583Z,23.1
2024-05-09T13:00:01.122Z,23.6
2024-05-09T13:01:01.609Z,23.6
2024-05-09T13:02:02.986Z,23.9
2024-05-09T13:03:01.909Z,23.8
2024-05-09T13:04:02.678Z,23.8
2024-05-09T13:05:01.267Z,23.4
2024-05-09T13:06:01.194Z,23.2
2024-05-09T13:07:03.689Z,23.9
2024-05-09T13:08:01.191Z,23.2
2024-05-09T13:09:01.100Z,23.8
2024-05-09T13:10:01.697Z,23.5
2024-05-09T13:11:00.990Z,23.7
2024-05-09T13:12:01.509Z,23.7
2024-05-09T13:13:03.181Z,22.9
2024-05-09T13:15:01.114Z,23.3
2024-05-09T13:16:01.554Z,23.4
2024-05-09T13:17:01.444Z,23.1
2024-05-09T13:18:05.150Z,23.8
2024-05-09T13:20:01.068Z,24.2
2024-05-09T13:21:01.118Z,24.5
2024-05-09T13:22:01.449Z,25.2
2024-05-09T13:23:00.971Z,24.9
2024-05-09T13:24:01.340Z,24.2
2024-05-09T13:25:01.224Z,24.4
2024-05-09T13:26:01.114Z,24.6
2024-05-09T13:28:01.944Z,23.6
2024-05-09T13:30:01.218Z,24.5
2024-05-09T13:31:01.435Z,24
2024-05-09T13:32:01.558Z,24.1
2024-05-09T13:33:01.599Z,24.8
2024-05-09T13:34:02.390Z,24.9
2024-05-09T13:35:01.006Z,24.9
2024-05-09T13:36:01.076Z,24.8
2024-05-09T13:37:01.383Z,24.6
2024-05-09T13:38:01.096Z,25.3
2024-05-09T13:39:01.116Z,25.1
2024-05-09T13:40:01.816Z,24.2
2024-05-09T13:41:01.198Z,24.9
2024-05-09T13:42:01.154Z,24.7
2024-05-09T13:43:01.864Z,24.7
2024-05-09T13:45:01.109Z,24.9
2024-05-09T13:46:01.174Z,24.9
2024-05-09T13:47:01.427Z,23.3
2024-05-09T13:48:02.980Z,23.4
2024-05-09T13:50:01.124Z,23.4
2024-05-09T13:51:01.146Z,23.8
2024-05-09T13:52:02.053Z,24.1
2024-05-09T13:54:01.130Z,23.6
2024-05-09T13:55:01.300Z,24.1
2024-05-09T13:57:01.072Z,24.8
2024-05-09T13:58:01.876Z,24.5
2024-05-09T14:00:01.321Z,24
2024-05-09T14:01:02.095Z,23.9
2024-05-09T14:02:01.521Z,23.9
2024-05-09T14:03:02.121Z,23.7
2024-05-09T14:04:02.647Z,23.8
2024-05-09T14:06:01.516Z,24.4
2024-05-09T14:07:01.712Z,23.7
2024-05-09T14:08:01.313Z,23.5
2024-05-09T14:09:01.092Z,24
2024-05-09T14:10:01.736Z,23.7
2024-05-09T14:11:01.936Z,24
2024-05-09T14:13:02.830Z,24.1
2024-05-09T14:15:01.111Z,24.2
2024-05-09T14:16:02.073Z,24.2
2024-05-09T14:17:01.287Z,24.1
2024-05-09T14:18:01.352Z,23.7
2024-05-09T14:19:01.682Z,23.2
2024-05-09T14:20:00.967Z,23.7
2024-05-09T14:21:01.257Z,24.1
2024-05-09T14:23:01.903Z,24.2
2024-05-09T14:25:01.461Z,23.8
2024-05-09T14:26:01.045Z,23.9
2024-05-09T14:27:01.053Z,24.4
2024-05-09T14:28:01.830Z,23.6
2024-05-09T14:30:01.225Z,23.8
2024-05-09T14:31:01.698Z,23.8
2024-05-09T14:32:00.994Z,23.6
2024-05-09T14:33:02.337Z,24.1
2024-05-09T14:34:02.819Z,24.4
2024-05-09T14:36:01.145Z,25.2
2024-05-09T14:37:01.588Z,24.4
2024-05-09T14:38:00.983Z,24.4
2024-05-09T14:39:01.067Z,23.9
2024-05-09T14:40:01.579Z,23.6
2024-05-09T14:41:01.390Z,23.5
2024-05-09T14:42:01.254Z,23.3
2024-05-09T14:43:04.542Z,23.1
2024-05-09T14:45:01.059Z,24.2
2024-05-09T14:46:01.293Z,23.8
2024-05-09T14:47:01.383Z,23.6
2024-05-09T14:48:02.437Z,23.4
2024-05-09T14:49:01.616Z,23.8
2024-05-09T14:51:01.136Z,24.1
2024-05-09T14:52:01.489Z,24.8
2024-05-09T14:53:01.006Z,24.5
2024-05-09T14:54:01.144Z,24.6
2024-05-09T14:55:02.369Z,24
2024-05-09T14:57:01.089Z,23.5
2024-05-09T14:58:01.510Z,24.2
2024-05-09T14:59:01.083Z,24.5
2024-05-09T15:00:01.165Z,24.9
2024-05-09T15:01:01.950Z,24.8
2024-05-09T15:02:02.032Z,24.7
2024-05-09T15:03:03.586Z,24.9
2024-05-09T15:04:01.297Z,24.9
2024-05-09T15:05:02.410Z,24.6
2024-05-09T15:06:01.168Z,23.8
2024-05-09T15:07:01.440Z,23.2
2024-05-09T15:09:01.132Z,23.4
2024-05-09T15:10:01.489Z,23.7
2024-05-09T15:11:01.668Z,22.9
2024-05-09T15:13:02.142Z,22.6
2024-05-09T15:14:01.034Z,23.2
2024-05-09T15:15:01.237Z,23.5
2024-05-09T15:16:01.501Z,24.4
2024-05-09T15:17:01.067Z,23.9
2024-05-09T15:18:02.138Z,23.5
2024-05-09T15:19:01.698Z,23.4
2024-05-09T15:20:02.323Z,23.6
2024-05-09T15:22:01.557Z,24.5
2024-05-09T15:23:01.167Z,24
2024-05-09T15:24:01.261Z,23.4
2024-05-09T15:25:01.568Z,23.8
2024-05-09T15:26:01.038Z,23.6
2024-05-09T15:27:01.060Z,23.1
2024-05-09T15:28:02.575Z,23.3
2024-05-09T15:30:01.101Z,23.2
2024-05-09T15:31:01.358Z,23
2024-05-09T15:32:01.285Z,22.9
2024-05-09T15:33:02.650Z,22.6
2024-05-09T15:35:01.097Z,23.4
2024-05-09T15:37:01.486Z,23.5
2024-05-09T15:38:01.054Z,22.9
2024-05-09T15:39:01.114Z,22.4
2024-05-09T15:40:01.556Z,22.6
2024-05-09T15:41:01.408Z,22.8
2024-05-09T15:42:01.057Z,22.6
2024-05-09T15:43:01.610Z,23
2024-05-09T15:44:01.039Z,23
2024-05-09T15:45:01.087Z,22.9
2024-05-09T15:46:01.881Z,22.9
2024-05-09T15:47:00.994Z,22.8
2024-05-09T15:48:02.134Z,22.9
2024-05-09T15:49:02.825Z,22.9
2024-05-09T15:51:01.928Z,23.2
2024-05-09T15:53:01.120Z,22.3
2024-05-09T15:54:01.137Z,23.1
2024-05-09T15:55:01.367Z,22.6
2024-05-09T15:57:01.102Z,22.9
2024-05-09T15:58:01.592Z,22.9
2024-05-09T15:59:01.042Z,23.1
2024-05-09T16:00:01.313Z,23.1
2024-05-09T16:01:02.199Z,23.2
2024-05-09T16:02:01.534Z,22.8
2024-05-09T16:03:01.545Z,23.5
2024-05-09T16:04:02.530Z,23.4
2024-05-09T16:05:01.463Z,22.9
2024-05-09T16:07:01.339Z,22.6
2024-05-09T16:08:01.132Z,22.8
2024-05-09T16:09:01.172Z,22.5
2024-05-09T16:10:01.708Z,22.9
2024-05-09T16:11:02.249Z,22.4
2024-05-09T16:13:03.907Z,22.3
2024-05-09T16:15:01.052Z,21.6
2024-05-09T16:16:01.717Z,22.1
2024-05-09T16:17:01.827Z,22.1
2024-05-09T16:18:02.097Z,22
2024-05-09T16:19:01.303Z,22
2024-05-09T16:21:01.193Z,22.4
2024-05-09T16:22:01.693Z,21.6
2024-05-09T16:24:01.138Z,21.8
2024-05-09T16:25:01.258Z,21.8
2024-05-09T16:26:01.111Z,22
2024-05-09T16:27:01.309Z,21.9
2024-05-09T16:28:02.978Z,22.3
2024-05-09T16:30:01.083Z,21.6
2024-05-09T16:31:01.387Z,21.4
2024-05-09T16:32:01.481Z,21.6
2024-05-09T16:33:02.512Z,21.6
2024-05-09T16:35:01.522Z,21.6
2024-05-09T16:36:01.054Z,21.8